createdAt,value
2022-12-08T00:01:46.584Z,14.00
2022-12-08T00:04:13.063Z,14.02
2022-12-08T00:06:59.688Z,14.63
2022-12-08T00:09:30.023Z,13.80
2022-12-08T00:12:00.790Z,14.40
2022-12-08T00:14:37.422Z,12.30
2022-12-08T00:17:04.685Z,13.13
2022-12-08T00:19:31.097Z,13.20
2022-12-08T00:21:57.881Z,12.20
2022-12-08T00:24:24.886Z,12.00
2022-12-08T00:26:51.629Z,11.18
2022-12-08T00:29:18.289Z,11.85
2022-12-08T00:31:44.784Z,11.23
2022-12-08T00:34:11.949Z,11.25
2022-12-08T00:36:38.894Z,11.48
2022-12-08T00:39:05.833Z,11.20
2022-12-08T00:41:50.742Z,11.40
2022-12-08T00:44:18.854Z,11.45
2022-12-08T00:46:45.859Z,12.00
2022-12-08T00:49:12.703Z,10.85
2022-12-08T00:51:39.045Z,10.95
2022-12-08T00:54:05.957Z,11.07
2022-12-08T00:56:32.412Z,10.10
2022-12-08T00:58:58.882Z,11.38
2022-12-08T01:01:25.386Z,10.75
2022-12-08T01:03:52.060Z,10.85
2022-12-08T01:06:18.552Z,11.27
2022-12-08T01:08:44.951Z,10.88
2022-12-08T01:11:15.626Z,11.57
2022-12-08T01:13:41.999Z,10.60
2022-12-08T01:16:08.497Z,11.07
2022-12-08T01:18:35.226Z,12.02
2022-12-08T01:21:02.787Z,11.48
2022-12-08T01:23:29.122Z,11.50
2022-12-08T01:25:55.439Z,11.23
2022-12-08T01:28:21.750Z,10.35
2022-12-08T01:30:48.120Z,10.43
2022-12-08T01:33:14.475Z,10.23
2022-12-08T01:35:40.799Z,11.32
2022-12-08T01:38:07.198Z,10.18
2022-12-08T01:40:33.535Z,10.27
2022-12-08T01:42:59.888Z,9.18
2022-12-08T01:45:27.554Z,9.77
2022-12-08T01:47:56.597Z,8.73
2022-12-08T01:50:23.522Z,8.70
2022-12-08T01:52:53.228Z,8.75
2022-12-08T01:55:23.889Z,8.85
2022-12-08T01:57:52.745Z,9.07
2022-12-08T02:00:20.225Z,8.73
2022-12-08T02:02:47.129Z,9.40
2022-12-08T02:05:13.830Z,9.40
2022-12-08T02:07:40.331Z,9.05
2022-12-08T02:10:07.184Z,8.57
2022-12-08T02:12:33.583Z,9.65
2022-12-08T02:15:04.725Z,9.13
2022-12-08T02:17:37.889Z,9.02
2022-12-08T02:20:04.487Z,8.55
2022-12-08T02:22:43.116Z,9.13
2022-12-08T02:25:12.478Z,8.02
2022-12-08T02:27:57.661Z,8.00
2022-12-08T02:30:35.489Z,8.38
2022-12-08T02:33:01.907Z,9.23
2022-12-08T02:35:37.528Z,9.10
2022-12-08T02:38:13.166Z,9.05
2022-12-08T02:40:44.512Z,8.95
2022-12-08T02:43:14.970Z,9.07
2022-12-08T02:45:43.847Z,8.68
2022-12-08T02:48:10.293Z,9.20
2022-12-08T02:50:36.936Z,9.40
2022-12-08T02:55:48.961Z,9.07
2022-12-08T02:58:15.262Z,9.90
2022-12-08T03:00:52.767Z,9.77
2022-12-08T03:03:28.121Z,9.65
2022-12-08T03:05:57.865Z,10.35
2022-12-08T03:08:24.238Z,10.20
2022-12-08T03:11:09.520Z,10.07
2022-12-08T03:13:39.700Z,10.02
2022-12-08T03:16:07.960Z,10.85
2022-12-08T03:18:36.965Z,10.60
2022-12-08T03:21:03.781Z,10.52
2022-12-08T03:23:30.584Z,11.15
2022-12-08T03:26:00.357Z,10.98
2022-12-08T03:28:26.925Z,11.02
2022-12-08T03:30:55.120Z,11.60
2022-12-08T03:33:26.188Z,11.80
2022-12-08T03:35:53.030Z,12.05
2022-12-08T03:38:19.598Z,11.38
2022-12-08T03:41:05.925Z,12.23
2022-12-08T03:43:32.230Z,11.80
2022-12-08T03:45:58.622Z,11.00
2022-12-08T03:48:24.970Z,11.32
2022-12-08T03:50:51.331Z,12.45
2022-12-08T03:53:17.620Z,11.75
2022-12-08T03:55:43.935Z,12.68
2022-12-08T03:58:10.247Z,12.05
2022-12-08T04:00:36.576Z,13.02
2022-12-08T04:03:04.453Z,13.23
2022-12-08T04:05:30.862Z,12.90
2022-12-08T04:07:57.920Z,12.82
2022-12-08T04:10:24.260Z,12.98
2022-12-08T04:12:50.629Z,14.25
2022-12-08T04:15:16.940Z,13.70
2022-12-08T04:17:43.250Z,14.65
2022-12-08T04:20:09.808Z,15.05
2022-12-08T04:22:36.121Z,15.00
2022-12-08T04:25:02.761Z,13.48
2022-12-08T04:27:29.123Z,14.88
2022-12-08T04:29:55.462Z,15.30
2022-12-08T04:32:21.808Z,15.15
2022-12-08T04:34:48.289Z,14.38
2022-12-08T04:37:14.599Z,14.50
2022-12-08T04:39:40.921Z,13.73
2022-12-08T04:42:07.309Z,13.35
2022-12-08T04:44:33.670Z,14.48
2022-12-08T04:47:00.028Z,13.70
2022-12-08T04:49:26.377Z,13.85
2022-12-08T04:51:52.728Z,14.35
2022-12-08T04:54:19.060Z,14.27
2022-12-08T04:56:45.411Z,13.68
2022-12-08T04:59:11.742Z,13.57
2022-12-08T05:01:38.175Z,14.10
2022-12-08T05:04:04.658Z,13.48
2022-12-08T05:06:31.050Z,13.15
2022-12-08T05:08:57.363Z,12.07
2022-12-08T05:11:23.781Z,12.90
2022-12-08T05:13:50.136Z,12.63
2022-12-08T05:16:16.614Z,11.85
2022-12-08T05:18:43.254Z,12.80
2022-12-08T05:21:09.829Z,13.13
2022-12-08T05:23:36.426Z,12.65
2022-12-08T05:26:02.777Z,12.73
2022-12-08T05:28:44.630Z,12.57
2022-12-08T05:31:13.100Z,12.48
2022-12-08T05:33:40.001Z,12.65
2022-12-08T05:36:06.690Z,13.10
2022-12-08T05:38:33.015Z,13.02
2022-12-08T05:40:59.410Z,13.13
2022-12-08T05:43:26.734Z,12.82
2022-12-08T05:45:53.115Z,12.48
2022-12-08T05:48:19.622Z,13.18
2022-12-08T05:50:46.829Z,13.55
2022-12-08T05:53:13.331Z,13.35
2022-12-08T05:55:39.665Z,13.00
2022-12-08T05:58:08.133Z,13.85
2022-12-08T06:00:34.856Z,13.00
2022-12-08T06:03:01.391Z,14.15
2022-12-08T06:05:27.899Z,13.77
2022-12-08T06:07:54.396Z,13.70
2022-12-08T06:10:20.744Z,14.52
2022-12-08T06:12:47.058Z,15.10
2022-12-08T06:15:13.355Z,15.80
2022-12-08T06:17:39.717Z,13.88
2022-12-08T06:20:06.694Z,14.43
2022-12-08T06:22:33.300Z,15.73
2022-12-08T06:24:59.632Z,14.52
2022-12-08T06:27:26.113Z,14.38
2022-12-08T06:29:52.446Z,14.90
2022-12-08T06:32:20.804Z,14.63
2022-12-08T06:34:50.754Z,14.48
2022-12-08T06:37:17.229Z,13.95
2022-12-08T06:39:43.589Z,13.50
2022-12-08T06:42:28.829Z,13.23
2022-12-08T06:45:01.718Z,13.48
2022-12-08T06:47:28.077Z,13.68
2022-12-08T06:49:54.444Z,13.65
2022-12-08T06:52:20.764Z,13.52
2022-12-08T06:54:47.149Z,13.20
2022-12-08T06:57:13.479Z,13.38
2022-12-08T06:59:39.869Z,13.20
2022-12-08T07:02:06.321Z,12.25
2022-12-08T07:04:32.810Z,13.48
2022-12-08T07:06:59.158Z,13.05
2022-12-08T07:09:25.574Z,12.07
2022-12-08T07:11:51.997Z,11.98
2022-12-08T07:14:20.208Z,12.07
2022-12-08T07:16:46.581Z,10.93
2022-12-08T07:19:13.059Z,13.05
2022-12-08T07:21:39.377Z,11.73
2022-12-08T07:24:05.848Z,12.65
2022-12-08T07:26:32.505Z,10.82
2022-12-08T07:28:59.572Z,10.98
2022-12-08T07:31:26.699Z,11.85
2022-12-08T07:33:53.180Z,11.35
2022-12-08T07:36:20.599Z,11.57
2022-12-08T07:38:47.365Z,10.38
2022-12-08T07:41:18.103Z,11.40
2022-12-08T07:43:44.704Z,10.85
2022-12-08T07:46:12.127Z,10.63
2022-12-08T07:48:38.654Z,11.68
2022-12-08T07:51:05.433Z,10.30
2022-12-08T07:53:32.201Z,10.95
2022-12-08T07:55:58.600Z,9.95
2022-12-08T07:58:25.749Z,9.23
2022-12-08T08:00:52.502Z,10.55
2022-12-08T08:03:19.070Z,9.55
2022-12-08T08:05:47.365Z,9.55
2022-12-08T08:08:13.748Z,10.63
2022-12-08T08:10:40.144Z,9.30
2022-12-08T08:13:06.484Z,10.20
2022-12-08T08:15:33.001Z,10.02
2022-12-08T08:17:59.527Z,11.82
2022-12-08T08:20:25.982Z,9.93
2022-12-08T08:22:52.417Z,10.93
2022-12-08T08:25:20.145Z,11.55
2022-12-08T08:27:46.787Z,9.80
2022-12-08T08:30:19.980Z,9.13
2022-12-08T08:32:47.641Z,8.50
2022-12-08T08:35:14.244Z,9.23
2022-12-08T08:37:44.342Z,9.32
2022-12-08T08:40:14.692Z,8.60
2022-12-08T08:42:41.028Z,9.15
2022-12-08T08:45:07.619Z,9.80
2022-12-08T08:47:33.929Z,9.88
2022-12-08T08:50:00.280Z,9.23
2022-12-08T08:52:26.631Z,8.90
2022-12-08T08:54:52.960Z,9.27
2022-12-08T08:57:25.064Z,9.57
2022-12-08T08:59:52.056Z,8.57
2022-12-08T09:02:18.952Z,8.18
2022-12-08T09:04:45.558Z,8.02
2022-12-08T09:07:12.292Z,8.05
2022-12-08T09:09:39.014Z,8.57
2022-12-08T09:12:05.941Z,9.73
2022-12-08T09:14:32.278Z,8.48
2022-12-08T09:16:58.624Z,7.88
2022-12-08T09:19:25.346Z,9.40
2022-12-08T09:21:51.676Z,9.90
2022-12-08T09:24:18.036Z,10.00
2022-12-08T09:26:44.945Z,10.95
2022-12-08T09:29:11.989Z,10.98
2022-12-08T09:31:38.536Z,11.32
2022-12-08T09:34:05.269Z,11.43
2022-12-08T09:36:31.660Z,11.90
2022-12-08T09:38:58.126Z,10.80
2022-12-08T09:41:39.266Z,11.82
2022-12-08T09:44:21.298Z,11.52
2022-12-08T09:46:48.459Z,12.30
2022-12-08T09:49:16.694Z,11.25
2022-12-08T09:51:44.052Z,11.80
2022-12-08T09:54:15.652Z,11.57
2022-12-08T09:56:42.069Z,10.82
2022-12-08T09:59:08.387Z,10.63
2022-12-08T10:01:40.246Z,10.48
2022-12-08T10:04:15.292Z,11.48
2022-12-08T10:06:45.495Z,11.10
2022-12-08T10:09:27.128Z,11.45
2022-12-08T10:11:59.408Z,10.25
2022-12-08T10:14:36.583Z,11.48
2022-12-08T10:17:23.268Z,11.13
2022-12-08T10:19:51.101Z,11.40
2022-12-08T10:22:22.717Z,11.18
2022-12-08T10:25:00.568Z,11.10
2022-12-08T10:27:27.097Z,11.05
2022-12-08T10:29:53.486Z,9.85
2022-12-08T10:32:21.486Z,9.48
2022-12-08T10:35:02.040Z,10.10
2022-12-08T10:37:28.483Z,10.20
2022-12-08T10:40:01.413Z,10.57
2022-12-08T10:42:32.953Z,10.55
2022-12-08T10:44:59.736Z,9.88
2022-12-08T10:47:26.824Z,9.73
2022-12-08T10:50:08.714Z,10.27
2022-12-08T10:52:41.668Z,9.02
2022-12-08T10:55:18.680Z,11.50
2022-12-08T10:57:45.217Z,9.93
2022-12-08T11:00:16.305Z,10.55
2022-12-08T11:02:52.010Z,10.68
2022-12-08T11:05:18.535Z,9.23
2022-12-08T11:07:51.507Z,9.60
2022-12-08T11:10:18.723Z,10.43
2022-12-08T11:12:45.421Z,21.50
2022-12-08T11:15:16.040Z,9.13
2022-12-08T11:17:44.275Z,8.50
2022-12-08T11:20:10.651Z,8.77
2022-12-08T11:22:40.012Z,9.10
2022-12-08T11:25:25.742Z,9.00
2022-12-08T11:27:53.434Z,9.10
2022-12-08T11:30:27.945Z,10.43
2022-12-08T11:32:58.449Z,9.43
2022-12-08T11:35:24.999Z,11.98
2022-12-08T11:37:52.390Z,8.73
2022-12-08T11:40:28.831Z,8.93
2022-12-08T11:43:06.627Z,9.65
2022-12-08T11:45:34.963Z,9.68
2022-12-08T11:48:07.275Z,9.10
2022-12-08T11:50:40.776Z,9.07
2022-12-08T11:53:12.767Z,10.55
2022-12-08T11:55:45.251Z,9.05
2022-12-08T11:58:18.517Z,9.50
2022-12-08T12:00:44.932Z,10.82
2022-12-08T12:03:29.727Z,8.07
2022-12-08T12:06:18.514Z,8.82
2022-12-08T12:08:48.814Z,8.75
2022-12-08T12:11:49.204Z,14.88
2022-12-08T12:14:34.114Z,10.73
2022-12-08T12:17:07.384Z,8.50
2022-12-08T12:19:36.587Z,8.70
2022-12-08T12:22:12.042Z,8.35
2022-12-08T12:24:39.168Z,9.00
2022-12-08T12:27:14.893Z,7.57
2022-12-08T12:29:52.272Z,7.82
2022-12-08T12:32:22.022Z,7.22
2022-12-08T12:34:56.731Z,11.13
2022-12-08T12:37:25.004Z,7.70
2022-12-08T12:40:03.906Z,8.75
2022-12-08T12:42:36.917Z,9.52
2022-12-08T12:45:12.606Z,8.10
2022-12-08T12:47:52.591Z,7.93
2022-12-08T12:50:34.310Z,7.97
2022-12-08T12:53:00.672Z,7.07
2022-12-08T12:55:28.331Z,6.78
2022-12-08T12:57:56.494Z,7.35
2022-12-08T13:00:24.302Z,8.02
2022-12-08T13:02:51.824Z,6.88
2022-12-08T13:05:30.061Z,7.28
2022-12-08T13:08:02.483Z,6.80
2022-12-08T13:10:33.624Z,6.88
2022-12-08T13:13:12.596Z,7.38
2022-12-08T13:15:48.316Z,6.57
2022-12-08T13:18:20.777Z,6.47
2022-12-08T13:20:50.509Z,6.72
2022-12-08T13:23:28.239Z,7.15
2022-12-08T13:26:12.765Z,6.78
2022-12-08T13:28:57.939Z,7.28
2022-12-08T13:31:45.096Z,6.63
2022-12-08T13:34:16.826Z,6.65
2022-12-08T13:36:57.085Z,5.57
2022-12-08T13:39:35.097Z,5.40
2022-12-08T13:42:05.628Z,5.38
2022-12-08T13:47:34.675Z,5.18
2022-12-08T13:58:36.532Z,5.40
2022-12-08T14:01:02.979Z,5.00
2022-12-08T14:03:29.470Z,4.93
2022-12-08T14:06:13.020Z,4.47
2022-12-08T14:11:38.134Z,4.47
2022-12-08T14:14:06.979Z,4.22
2022-12-08T14:16:37.506Z,5.47
2022-12-08T14:19:05.015Z,5.32
2022-12-08T14:21:35.865Z,5.60
2022-12-08T14:24:03.166Z,5.85
2022-12-08T14:26:32.474Z,4.93
2022-12-08T14:28:59.235Z,5.93
2022-12-08T14:31:25.947Z,6.10
2022-12-08T14:33:56.359Z,6.95
2022-12-08T14:36:23.396Z,6.70
2022-12-08T14:38:51.601Z,6.20
2022-12-08T14:41:24.608Z,5.68
2022-12-08T14:43:57.692Z,6.38
2022-12-08T14:46:24.217Z,6.97
2022-12-08T14:48:50.652Z,6.57
2022-12-08T14:51:23.211Z,6.75
2022-12-08T14:53:55.633Z,6.22
2022-12-08T14:56:38.534Z,5.43
2022-12-08T14:59:08.066Z,4.53
2022-12-08T15:01:35.290Z,4.82
2022-12-08T15:04:03.152Z,4.55
2022-12-08T15:06:29.610Z,5.10
2022-12-08T15:08:58.796Z,5.18
2022-12-08T15:11:32.799Z,5.13
2022-12-08T15:13:59.382Z,5.18
2022-12-08T15:16:46.090Z,4.80
2022-12-08T15:19:17.811Z,5.97
2022-12-08T15:21:45.205Z,5.82
2022-12-08T15:24:12.407Z,5.85
2022-12-08T15:26:40.671Z,6.38
2022-12-08T15:29:18.622Z,7.03
2022-12-08T15:31:45.031Z,6.78
2022-12-08T15:34:11.434Z,5.38
2022-12-08T15:36:39.720Z,5.25
2022-12-08T15:39:10.652Z,5.90
2022-12-08T15:41:37.097Z,6.38
2022-12-08T15:44:03.513Z,11.18
2022-12-08T15:46:29.912Z,6.38
2022-12-08T15:48:58.194Z,5.88
2022-12-08T15:51:24.777Z,6.45
2022-12-08T15:53:51.683Z,6.50
2022-12-08T15:56:27.274Z,6.57
2022-12-08T15:58:55.739Z,6.75
2022-12-08T16:01:23.505Z,5.85
2022-12-08T16:09:29.571Z,5.95
2022-12-08T16:12:14.636Z,5.47
2022-12-08T16:17:30.473Z,8.27
2022-12-08T16:19:56.863Z,7.47
2022-12-08T16:22:54.207Z,8.63
2022-12-08T16:25:22.071Z,13.63
2022-12-08T16:28:01.224Z,10.48
2022-12-08T16:30:28.112Z,14.93
2022-12-08T16:32:54.539Z,14.60
2022-12-08T16:35:20.931Z,9.82
2022-12-08T16:37:48.506Z,10.73
2022-12-08T16:40:15.068Z,7.65
2022-12-08T16:42:44.265Z,7.30
2022-12-08T16:45:15.393Z,8.60
2022-12-08T16:47:43.362Z,8.35
2022-12-08T16:50:11.414Z,7.57
2022-12-08T16:52:37.889Z,9.07
2022-12-08T16:55:08.479Z,8.57
2022-12-08T16:57:34.846Z,7.80
2022-12-08T17:00:01.312Z,7.88
2022-12-08T17:02:27.732Z,8.13
2022-12-08T17:04:54.153Z,8.32
2022-12-08T17:07:20.530Z,6.80
2022-12-08T17:09:47.020Z,6.13
2022-12-08T17:12:13.438Z,6.80
2022-12-08T17:14:39.983Z,7.28
2022-12-08T17:17:06.649Z,7.22
2022-12-08T17:19:33.528Z,8.02
2022-12-08T17:22:00.475Z,8.13
2022-12-08T17:24:29.098Z,8.07
2022-12-08T17:26:56.570Z,8.10
2022-12-08T17:29:23.163Z,8.55
2022-12-08T17:31:49.946Z,8.45
2022-12-08T17:34:16.568Z,8.70
2022-12-08T17:36:42.971Z,9.85
2022-12-08T17:39:13.451Z,10.23
2022-12-08T17:41:43.002Z,10.35
2022-12-08T17:44:13.731Z,10.40
2022-12-08T17:46:43.431Z,10.68
2022-12-08T17:49:15.430Z,8.88
2022-12-08T17:51:41.852Z,12.48
2022-12-08T17:54:08.411Z,8.70
2022-12-08T17:56:34.799Z,10.93
2022-12-08T17:59:02.814Z,12.27
2022-12-08T18:01:29.309Z,12.73
2022-12-08T18:03:57.627Z,9.68
2022-12-08T18:06:28.131Z,10.60
2022-12-08T18:08:58.342Z,15.10
2022-12-08T18:11:25.047Z,14.23
2022-12-08T18:13:52.323Z,12.73
2022-12-08T18:16:19.814Z,12.18
2022-12-08T18:18:46.677Z,11.38
2022-12-08T18:21:13.206Z,11.65
2022-12-08T18:23:42.849Z,10.98
2022-12-08T18:26:10.628Z,11.43
2022-12-08T18:28:37.284Z,9.75
2022-12-08T18:31:14.208Z,11.30
2022-12-08T18:33:42.155Z,11.43
2022-12-08T18:36:16.902Z,11.70
2022-12-08T18:38:43.483Z,11.20
2022-12-08T18:41:17.558Z,11.07
2022-12-08T18:43:44.168Z,10.95
2022-12-08T18:46:11.588Z,10.43
2022-12-08T18:48:43.482Z,10.93
2022-12-08T18:51:11.495Z,10.00
2022-12-08T18:53:38.076Z,11.45
2022-12-08T18:56:04.688Z,10.85
2022-12-08T18:58:31.092Z,11.85
2022-12-08T19:00:57.764Z,11.88
2022-12-08T19:03:24.270Z,11.85
2022-12-08T19:05:50.656Z,11.57
2022-12-08T19:08:17.242Z,11.63
2022-12-08T19:10:43.694Z,12.10
2022-12-08T19:13:10.357Z,11.68
2022-12-08T19:15:36.867Z,12.50
2022-12-08T19:18:03.550Z,11.70
2022-12-08T19:20:30.057Z,11.80
2022-12-08T19:22:56.427Z,12.40
2022-12-08T19:25:23.443Z,13.48
2022-12-08T19:27:49.909Z,18.05
2022-12-08T19:30:16.480Z,15.30
2022-12-08T19:32:43.137Z,14.05
2022-12-08T19:35:09.882Z,13.93
2022-12-08T19:37:36.434Z,13.95
2022-12-08T19:40:22.629Z,13.68
2022-12-08T19:43:07.574Z,12.02
2022-12-08T19:45:38.373Z,13.05
2022-12-08T19:48:05.189Z,13.27
2022-12-08T19:50:37.694Z,13.07
2022-12-08T19:53:08.437Z,13.57
2022-12-08T19:55:34.963Z,15.18
2022-12-08T19:58:02.025Z,13.20
2022-12-08T20:00:29.555Z,13.07
2022-12-08T20:02:56.637Z,12.52
2022-12-08T20:05:23.827Z,12.52
2022-12-08T20:07:50.657Z,13.20
2022-12-08T20:10:18.754Z,13.05
2022-12-08T20:12:45.749Z,13.60
2022-12-08T20:15:12.219Z,12.57
2022-12-08T20:17:38.896Z,12.70
2022-12-08T20:20:07.563Z,15.05
2022-12-08T20:22:34.452Z,14.95
2022-12-08T20:25:01.251Z,14.50
2022-12-08T20:27:29.087Z,14.02
2022-12-08T20:29:55.632Z,13.63
2022-12-08T20:32:22.304Z,13.40
2022-12-08T20:34:49.030Z,12.55
2022-12-08T20:37:15.517Z,12.88
2022-12-08T20:39:41.896Z,13.23
2022-12-08T20:42:11.119Z,14.25
2022-12-08T20:44:43.325Z,13.50
2022-12-08T20:47:10.188Z,13.43
2022-12-08T20:49:36.763Z,13.10
2022-12-08T20:52:03.322Z,14.35
2022-12-08T20:54:30.040Z,12.63
2022-12-08T20:56:56.447Z,12.88
2022-12-08T20:59:22.982Z,13.45
2022-12-08T21:01:49.677Z,12.48
2022-12-08T21:04:16.717Z,12.25
2022-12-08T21:06:43.422Z,14.43
2022-12-08T21:09:09.987Z,13.13
2022-12-08T21:11:36.585Z,12.45
2022-12-08T21:14:05.383Z,12.25
2022-12-08T21:16:31.918Z,13.50
2022-12-08T21:18:58.592Z,14.70
2022-12-08T21:21:25.130Z,13.23
2022-12-08T21:23:52.293Z,13.02
2022-12-08T21:26:27.879Z,12.23
2022-12-08T21:28:55.034Z,12.15
2022-12-08T21:31:21.917Z,12.27
2022-12-08T21:33:48.649Z,12.68
2022-12-08T21:36:17.117Z,11.77
2022-12-08T21:38:43.913Z,13.95
2022-12-08T21:41:12.842Z,14.55
2022-12-08T21:43:39.419Z,13.25
2022-12-08T21:46:05.956Z,13.77
2022-12-08T21:48:32.919Z,13.50
2022-12-08T21:51:05.778Z,14.60
2022-12-08T21:53:32.377Z,14.27
2022-12-08T21:55:58.856Z,13.30
2022-12-08T21:58:26.388Z,13.27
2022-12-08T22:00:53.400Z,12.93
2022-12-08T22:03:20.216Z,15.40
2022-12-08T22:05:46.982Z,12.35
2022-12-08T22:08:13.723Z,14.15
2022-12-08T22:10:40.588Z,14.02
2022-12-08T22:13:07.225Z,13.43
2022-12-08T22:15:34.191Z,12.65
2022-12-08T22:18:00.963Z,12.52
2022-12-08T22:20:27.476Z,12.13
2022-12-08T22:22:54.156Z,11.07
2022-12-08T22:25:20.720Z,11.20
2022-12-08T22:27:47.477Z,12.05
2022-12-08T22:30:14.100Z,11.00
2022-12-08T22:32:40.853Z,11.23
2022-12-08T22:35:07.900Z,11.77
2022-12-08T22:37:34.425Z,12.20
2022-12-08T22:40:01.165Z,11.52
2022-12-08T22:42:27.807Z,10.80
2022-12-08T22:44:54.298Z,11.35
2022-12-08T22:47:21.450Z,11.80
2022-12-08T22:49:48.497Z,11.88
2022-12-08T22:52:15.006Z,11.70
2022-12-08T22:54:41.958Z,11.80
2022-12-08T22:57:08.494Z,12.02
2022-12-08T22:59:35.129Z,12.38
2022-12-08T23:02:01.634Z,12.02
2022-12-08T23:04:28.262Z,11.40
2022-12-08T23:06:54.691Z,11.95
2022-12-08T23:09:21.534Z,12.60
2022-12-08T23:11:48.038Z,12.82
2022-12-08T23:14:14.737Z,11.35
2022-12-08T23:16:41.149Z,12.02
2022-12-08T23:19:07.849Z,11.25
2022-12-08T23:21:34.242Z,10.23
2022-12-08T23:24:01.974Z,11.45
2022-12-08T23:26:30.390Z,11.35
2022-12-08T23:28:57.315Z,11.95
2022-12-08T23:31:24.445Z,11.82
2022-12-08T23:33:51.132Z,11.82
2022-12-08T23:36:18.494Z,13.00
2022-12-08T23:38:45.548Z,11.20
2022-12-08T23:41:12.800Z,10.98
2022-12-08T23:43:42.837Z,10.77
2022-12-08T23:46:09.237Z,10.95
2022-12-08T23:48:35.688Z,11.05
2022-12-08T23:51:02.105Z,11.35
2022-12-08T23:53:29.807Z,10.75
2022-12-08T23:56:00.353Z,11.82
2022-12-08T23:58:26.945Z,10.48
